Time;durP1;ratioP1;P1;durP2;ratioP2;P2;SDS_P1;SDS_P2;PMS_P1;PMS_P2;Temp;Humidity;BMP_temperature;BMP_pressure;BME280_temperature;BME280_humidity;BME280_pressure;Samples;Min_cycle;Max_cycle;Signal;HPM_P1;HPM_P2
2023/05/11 00:00:38;;;;;;;13.25;6.75;;;;;;;17.67;63.57;99629.69;5034890;28;20056;-77
2023/05/11 00:03:05;;;;;;;10.82;7.53;;;;;;;17.66;63.44;99625.34;5052730;28;20079;-77
2023/05/11 00:05:32;;;;;;;9.68;7.28;;;;;;;17.65;63.47;99629.00;5052044;28;20056;-77
2023/05/11 00:07:58;;;;;;;10.10;7.18;;;;;;;17.61;63.59;99624.91;5051628;28;20056;-77
2023/05/11 00:10:27;;;;;;;8.98;6.80;;;;;;;17.60;63.65;99621.41;5052119;28;20123;-76
2023/05/11 00:12:53;;;;;;;8.45;5.97;;;;;;;17.56;63.70;99618.19;5052645;28;20084;-76
2023/05/11 00:15:20;;;;;;;7.72;6.25;;;;;;;17.55;63.59;99613.84;5051990;28;20127;-77
2023/05/11 00:17:46;;;;;;;8.07;7.20;;;;;;;17.54;63.53;99620.13;5051510;28;20047;-76
2023/05/11 00:23:01;;;;;;;6.65;5.75;;;;;;;17.51;63.50;99611.59;5041294;22;20073;-78
2023/05/11 00:25:27;;;;;;;6.15;5.07;;;;;;;17.50;63.66;99609.91;5051483;28;20052;-78
2023/05/11 00:27:54;;;;;;;8.85;6.32;;;;;;;17.48;63.71;99610.03;5051439;28;20053;-78
2023/05/11 00:30:20;;;;;;;7.43;6.10;;;;;;;17.48;63.70;99611.84;5034362;28;20045;-79
2023/05/11 00:32:50;;;;;;;6.70;5.97;;;;;;;17.45;63.79;99611.16;5052241;28;20420;-78
2023/05/11 00:35:16;;;;;;;7.85;6.35;;;;;;;17.43;63.77;99606.94;5034001;28;20112;-77
2023/05/11 00:37:43;;;;;;;8.30;6.28;;;;;;;17.42;63.65;99605.28;5051274;28;20124;-78
2023/05/11 00:40:10;;;;;;;8.27;6.63;;;;;;;17.41;63.73;99603.56;5051822;28;20115;-77
2023/05/11 00:42:36;;;;;;;7.55;6.18;;;;;;;17.40;64.05;99609.88;5034116;28;20048;-78
2023/05/11 00:45:04;;;;;;;7.20;5.95;;;;;;;17.38;64.00;99606.53;5051509;28;20173;-78
2023/05/11 00:47:30;;;;;;;9.27;7.40;;;;;;;17.36;63.92;99604.00;5051157;28;20382;-77
2023/05/11 00:49:57;;;;;;;10.00;7.28;;;;;;;17.35;63.81;99601.47;5051593;28;20493;-78
2023/05/11 00:52:24;;;;;;;10.70;8.05;;;;;;;17.34;64.14;99603.25;5051375;28;20056;-78
2023/05/11 00:54:50;;;;;;;8.13;7.22;;;;;;;17.32;64.30;99598.06;5051343;28;20092;-77
2023/05/11 00:57:17;;;;;;;9.65;6.75;;;;;;;17.31;64.32;99599.06;5051260;28;20492;-77
2023/05/11 00:59:43;;;;;;;11.73;7.35;;;;;;;17.31;64.38;99603.56;5051253;28;20102;-78
2023/05/11 01:02:10;;;;;;;7.88;6.95;;;;;;;17.29;64.33;99595.72;5051327;28;20057;-78
2023/05/11 01:04:37;;;;;;;9.35;6.82;;;;;;;17.28;64.52;99599.34;5051539;28;20075;-77
2023/05/11 01:07:19;;;;;;;9.80;7.53;;;;;;;17.25;65.25;99604.94;5050582;28;20504;-78
2023/05/11 01:09:48;;;;;;;10.52;7.15;;;;;;;17.29;64.44;99605.50;5049672;28;20064;-78
2023/05/11 01:12:23;;;;;;;10.60;7.47;;;;;;;17.26;65.37;99600.44;5033268;28;20056;-78
2023/05/11 01:14:56;;;;;;;9.82;7.93;;;;;;;17.26;65.02;99606.63;5033191;28;20497;-78
2023/05/11 01:17:33;;;;;;;8.50;7.43;;;;;;;17.26;65.27;99601.28;5050693;28;20398;-77
2023/05/11 01:20:05;;;;;;;9.45;7.90;;;;;;;17.26;64.96;99605.75;5050640;28;20057;-78
2023/05/11 01:22:58;;;;;;;8.80;7.28;;;;;;;17.22;65.54;99602.53;5060223;28;20493;-78
2023/05/11 01:25:43;;;;;;;10.68;8.77;;;;;;;17.23;65.58;99606.06;5070592;28;20071;-78
2023/05/11 01:28:34;;;;;;;10.43;8.30;;;;;;;17.22;65.54;99610.50;5070366;28;20405;-78
2023/05/11 01:31:09;;;;;;;12.05;8.95;;;;;;;17.22;65.66;99607.84;5071006;28;20512;-78
2023/05/11 01:33:43;;;;;;;11.85;7.95;;;;;;;17.22;65.04;99602.53;5070874;28;20049;-78
2023/05/11 01:36:12;;;;;;;9.55;7.70;;;;;;;17.21;65.01;99602.66;5070185;28;20048;-78
2023/05/11 01:38:43;;;;;;;12.07;8.38;;;;;;;17.19;65.12;99611.63;5070750;28;20105;-78
2023/05/11 01:41:16;;;;;;;9.40;8.18;;;;;;;17.16;65.35;99606.56;5070667;28;20057;-78
2023/05/11 01:43:53;;;;;;;10.55;8.45;;;;;;;17.14;65.70;99613.84;5070983;28;20255;-78
2023/05/11 01:46:23;;;;;;;9.80;7.78;;;;;;;17.17;65.08;99610.09;5052322;28;20052;-78
2023/05/11 01:48:53;;;;;;;12.35;9.27;;;;;;;17.16;65.15;99608.41;5070209;28;20057;-78
2023/05/11 01:51:21;;;;;;;12.23;9.18;;;;;;;17.16;65.15;99606.56;5070478;28;20049;-78
2023/05/11 01:53:49;;;;;;;10.77;9.05;;;;;;;17.15;65.12;99599.56;5070448;28;20044;-78
2023/05/11 01:56:17;;;;;;;10.82;8.73;;;;;;;17.15;65.35;99606.69;5069758;28;20064;-78
2023/05/11 01:58:45;;;;;;;12.93;10.23;;;;;;;17.15;65.29;99614.69;5070112;28;20048;-78
2023/05/11 02:01:14;;;;;;;14.00;10.10;;;;;;;17.13;65.41;99606.84;5052657;28;20257;-78
2023/05/11 02:03:42;;;;;;;12.30;9.40;;;;;;;17.11;65.44;99614.13;5069938;28;20131;-78
2023/05/11 02:06:12;;;;;;;12.48;9.80;;;;;;;17.11;65.38;99615.91;5070242;28;20048;-77
2023/05/11 02:08:40;;;;;;;11.40;8.95;;;;;;;17.10;65.33;99609.78;5069542;28;20118;-78
2023/05/11 02:11:09;;;;;;;10.65;9.10;;;;;;;17.08;65.75;99608.22;5070246;28;20077;-78
2023/05/11 02:13:40;;;;;;;11.85;9.75;;;;;;;17.08;65.79;99613.56;5052389;28;20094;-78
2023/05/11 02:16:09;;;;;;;13.77;10.05;;;;;;;17.08;65.70;99610.88;5052161;28;20052;-78
2023/05/11 02:18:39;;;;;;;12.93;10.15;;;;;;;17.07;65.86;99607.38;5069706;28;20055;-78
2023/05/11 02:21:08;;;;;;;13.23;10.57;;;;;;;17.06;65.74;99611.88;5071265;28;20170;-78
2023/05/11 02:23:36;;;;;;;15.10;11.18;;;;;;;17.06;65.57;99624.31;5074286;28;20090;-78
2023/05/11 02:26:04;;;;;;;15.63;10.52;;;;;;;17.05;65.43;99614.66;5074048;28;20060;-78
2023/05/11 02:28:31;;;;;;;15.98;10.52;;;;;;;17.02;65.44;99618.41;5055792;28;20359;-78
2023/05/11 02:31:04;;;;;;;17.23;10.32;;;;;;;16.99;66.05;99623.13;5056608;28;20106;-77
2023/05/11 02:33:33;;;;;;;;;;;;;;;16.98;65.89;99624.97;5074950;28;20044;-78
2023/05/11 02:36:01;;;;;;;12.93;9.27;;;;;;;17.01;65.19;99629.16;5073713;28;19927;-78
2023/05/11 02:38:33;;;;;;;12.48;9.43;;;;;;;16.96;66.04;99621.56;5073564;28;20055;-78
2023/05/11 02:41:06;;;;;;;13.73;10.18;;;;;;;16.93;66.14;99624.47;5073432;28;20484;-78
2023/05/11 02:43:36;;;;;;;13.73;10.40;;;;;;;16.91;66.04;99624.66;5074021;28;20052;-78
2023/05/11 02:46:05;;;;;;;12.27;9.88;;;;;;;16.89;65.90;99631.91;5073566;28;20501;-78
2023/05/11 02:48:38;;;;;;;12.85;9.73;;;;;;;16.86;66.76;99634.81;5073473;28;20048;-78
2023/05/11 02:51:08;;;;;;;12.85;10.38;;;;;;;16.87;66.42;99630.34;5073812;28;20059;-78
2023/05/11 02:53:38;;;;;;;12.95;10.93;;;;;;;16.88;66.57;99626.69;5073792;28;20485;-78
2023/05/11 02:56:06;;;;;;;13.70;10.65;;;;;;;16.88;66.18;99632.88;5073624;28;20052;-78
2023/05/11 02:58:33;;;;;;;13.57;11.27;;;;;;;16.88;66.27;99629.38;5073245;28;20090;-78
2023/05/11 03:01:01;;;;;;;12.73;10.02;;;;;;;16.87;66.18;99633.84;5055865;28;20086;-78
2023/05/11 03:03:28;;;;;;;11.98;9.93;;;;;;;16.85;66.17;99630.47;5073473;28;20044;-78
2023/05/11 03:05:54;;;;;;;12.70;10.13;;;;;;;16.84;66.11;99630.59;5073116;28;20041;-78
2023/05/11 03:08:21;;;;;;;10.80;9.23;;;;;;;16.84;66.45;99630.59;5073322;28;20055;-78
2023/05/11 03:10:47;;;;;;;11.63;9.25;;;;;;;16.83;66.33;99624.47;5073515;28;20052;-78
2023/05/11 03:13:15;;;;;;;12.23;9.10;;;;;;;16.83;66.47;99627.13;5073057;28;20098;-78
2023/05/11 03:15:42;;;;;;;9.30;7.97;;;;;;;16.82;66.25;99635.22;5073000;28;20520;-78
2023/05/11 03:18:12;;;;;;;9.88;8.73;;;;;;;16.80;66.25;99628.22;5055186;28;20136;-78
2023/05/11 03:20:42;;;;;;;8.32;7.43;;;;;;;16.78;66.32;99632.81;5073249;28;20048;-79
2023/05/11 03:23:11;;;;;;;8.27;7.45;;;;;;;16.78;66.41;99630.16;5073039;28;20145;-78
2023/05/11 03:25:41;;;;;;;7.65;6.85;;;;;;;16.77;66.39;99627.63;5055061;28;20052;-78
2023/05/11 03:28:09;;;;;;;8.23;7.32;;;;;;;16.77;66.12;99631.13;5072910;28;20088;-78
2023/05/11 03:30:37;;;;;;;8.15;7.35;;;;;;;16.76;66.09;99632.13;5073180;28;20063;-78
2023/05/11 03:33:04;;;;;;;11.73;8.30;;;;;;;16.74;66.02;99636.69;5053428;28;20455;-78
2023/05/11 03:35:33;;;;;;;10.30;8.20;;;;;;;16.72;66.49;99627.19;5072990;28;20049;-78
2023/05/11 03:38:01;;;;;;;9.77;8.57;;;;;;;16.71;66.17;99633.47;5071309;28;20409;-78
2023/05/11 03:40:32;;;;;;;11.20;8.85;;;;;;;16.68;66.07;99632.75;5073031;28;20061;-77
2023/05/11 03:43:02;;;;;;;9.88;8.70;;;;;;;16.66;66.67;99632.06;5055052;28;20061;-78
2023/05/11 03:45:30;;;;;;;11.15;8.93;;;;;;;16.65;66.63;99630.38;5072298;28;20505;-78
2023/05/11 03:47:59;;;;;;;10.25;8.85;;;;;;;16.64;66.68;99623.34;5054735;28;20140;-78
2023/05/11 03:50:26;;;;;;;10.60;8.85;;;;;;;16.65;66.52;99630.38;5072745;28;20075;-78
2023/05/11 03:52:54;;;;;;;9.57;8.45;;;;;;;16.64;66.70;99620.69;5072930;28;20109;-78
2023/05/11 03:55:21;;;;;;;9.57;8.30;;;;;;;16.66;66.88;99623.22;5071791;28;20521;-78
2023/05/11 03:57:48;;;;;;;11.25;9.13;;;;;;;16.66;66.97;99624.06;5072261;28;20052;-78
2023/05/11 04:00:15;;;;;;;9.73;7.68;;;;;;;16.69;67.03;99625.63;5072401;28;20505;-78
2023/05/11 04:02:42;;;;;;;9.48;8.48;;;;;;;16.71;67.17;99623.66;5072694;28;20041;-78
2023/05/11 04:05:10;;;;;;;9.73;8.18;;;;;;;16.74;67.11;99619.94;5072027;28;20078;-78
2023/05/11 04:07:37;;;;;;;8.40;7.57;;;;;;;16.78;66.91;99623.97;5071380;28;20076;-78
2023/05/11 04:10:05;;;;;;;10.93;9.00;;;;;;;16.79;66.95;99623.84;5072298;28;20068;-78
2023/05/11 04:12:31;;;;;;;10.63;7.68;;;;;;;16.83;66.71;99623.59;5072211;28;20049;-78
2023/05/11 04:14:58;;;;;;;8.90;8.00;;;;;;;16.85;66.83;99627.81;5053919;28;20051;-79
2023/05/11 04:17:24;;;;;;;9.68;8.45;;;;;;;16.87;66.50;99627.69;5071944;28;20048;-79
2023/05/11 04:19:51;;;;;;;9.05;8.15;;;;;;;16.89;66.78;99628.38;5072526;28;20063;-78
2023/05/11 04:22:17;;;;;;;11.18;8.93;;;;;;;16.90;66.79;99622.94;5072008;28;20052;-78
2023/05/11 04:24:44;;;;;;;11.80;8.95;;;;;;;16.92;66.87;99628.13;5071723;28;20048;-78
2023/05/11 04:27:10;;;;;;;9.27;8.32;;;;;;;16.94;67.00;99627.00;5071409;28;20049;-78
2023/05/11 04:29:37;;;;;;;11.93;9.88;;;;;;;16.97;66.87;99628.56;5071919;28;20503;-79
2023/05/11 04:32:03;;;;;;;12.20;9.75;;;;;;;16.98;66.95;99635.59;5054287;28;20059;-79
2023/05/11 04:34:30;;;;;;;12.10;10.15;;;;;;;16.99;66.96;99631.94;5071904;28;20053;-79
2023/05/11 04:36:56;;;;;;;11.30;9.77;;;;;;;17.02;66.90;99636.16;5071035;28;20075;-77
2023/05/11 04:39:23;;;;;;;12.63;10.25;;;;;;;17.02;66.86;99633.50;5071859;28;20473;-78
2023/05/11 04:41:49;;;;;;;13.18;10.20;;;;;;;17.04;67.00;99636.84;5070544;28;20059;-79
2023/05/11 04:44:16;;;;;;;11.50;10.30;;;;;;;17.04;67.07;99634.19;5051936;28;20476;-78
2023/05/11 04:46:42;;;;;;;11.43;10.10;;;;;;;17.04;66.85;99637.75;5070421;28;20062;-76
2023/05/11 04:49:09;;;;;;;10.68;9.57;;;;;;;17.05;66.82;99647.41;5071197;28;20139;-76
2023/05/11 04:51:35;;;;;;;10.85;9.77;;;;;;;17.05;67.02;99639.41;5070670;28;20051;-77
2023/05/11 04:54:02;;;;;;;10.95;9.77;;;;;;;17.08;66.85;99637.47;5053495;28;20493;-78
2023/05/11 04:56:28;;;;;;;9.30;8.40;;;;;;;17.08;66.79;99637.47;5070779;28;20447;-77
2023/05/11 04:58:55;;;;;;;9.40;7.88;;;;;;;17.09;67.01;99641.81;5070911;28;20049;-76
2023/05/11 05:01:21;;;;;;;9.00;7.90;;;;;;;17.09;66.95;99644.47;5053520;28;20125;-77
2023/05/11 05:03:48;;;;;;;9.85;8.25;;;;;;;17.09;66.99;99639.16;5071128;28;20049;-77
2023/05/11 05:06:15;;;;;;;10.27;8.73;;;;;;;17.09;66.95;99644.47;5070318;28;20102;-77
2023/05/11 05:08:41;;;;;;;9.23;8.32;;;;;;;17.11;66.71;99645.19;5070747;28;20071;-78
2023/05/11 05:11:09;;;;;;;10.45;7.60;;;;;;;17.11;66.87;99645.19;5070739;28;20447;-78
2023/05/11 05:13:36;;;;;;;8.82;7.57;;;;;;;17.10;66.76;99649.66;5070872;28;20080;-77
2023/05/11 05:16:03;;;;;;;10.23;7.80;;;;;;;17.11;66.72;99653.16;5051859;28;20397;-76
2023/05/11 05:18:29;;;;;;;8.68;7.72;;;;;;;17.11;66.76;99639.84;5070281;28;20055;-77
2023/05/11 05:20:56;;;;;;;8.52;7.50;;;;;;;17.12;66.46;99649.53;5070728;28;20063;-77
2023/05/11 05:23:22;;;;;;;8.68;7.00;;;;;;;17.12;66.52;99654.84;5070911;28;20049;-77
2023/05/11 05:25:49;;;;;;;9.00;7.93;;;;;;;17.11;66.67;99656.66;5070167;28;20057;-78
2023/05/11 05:28:15;;;;;;;9.52;8.23;;;;;;;17.10;66.31;99655.00;5069894;28;20048;-77
2023/05/11 05:30:42;;;;;;;10.38;8.20;;;;;;;17.09;66.57;99657.78;5052993;28;20048;-77
2023/05/11 05:33:08;;;;;;;9.32;8.32;;;;;;;17.08;66.69;99667.56;5071172;28;20040;-77
2023/05/11 05:35:35;;;;;;;10.45;9.32;;;;;;;17.07;66.52;99676.53;5070914;28;20056;-76
2023/05/11 05:38:01;;;;;;;11.00;7.53;;;;;;;17.06;66.54;99675.69;5070200;28;20063;-76
2023/05/11 05:40:28;;;;;;;6.88;6.20;;;;;;;17.04;66.44;99674.97;5071360;28;20044;-76
2023/05/11 05:42:55;;;;;;;7.75;6.55;;;;;;;17.02;66.10;99679.56;5070524;28;20041;-80
2023/05/11 05:45:21;;;;;;;7.20;6.47;;;;;;;17.00;66.32;99692.13;5052471;28;20106;-77
2023/05/11 05:47:48;;;;;;;8.73;6.72;;;;;;;16.97;66.15;99687.06;5069976;28;20459;-78
2023/05/11 05:50:15;;;;;;;6.40;5.75;;;;;;;16.93;66.28;99690.94;5070858;28;20055;-79
2023/05/11 05:52:41;;;;;;;6.43;5.82;;;;;;;16.89;66.21;99695.69;5070489;28;20044;-79
2023/05/11 05:55:08;;;;;;;6.57;5.97;;;;;;;16.85;66.17;99696.09;5070447;28;20413;-77
2023/05/11 05:57:35;;;;;;;6.78;6.07;;;;;;;16.80;66.48;99689.38;5069248;28;20543;-78
2023/05/11 06:00:01;;;;;;;6.65;6.05;;;;;;;16.75;66.50;99699.50;5070757;28;20045;-78
2023/05/11 06:02:28;;;;;;;6.78;5.72;;;;;;;16.72;66.62;99702.44;5071146;28;20450;-78
2023/05/11 06:04:55;;;;;;;5.88;5.28;;;;;;;16.69;66.91;99710.69;5070525;28;20424;-78
2023/05/11 06:07:21;;;;;;;5.75;5.15;;;;;;;16.66;66.73;99711.78;5070130;28;20083;-78
2023/05/11 06:09:48;;;;;;;5.57;4.97;;;;;;;16.65;66.89;99710.09;5070311;28;20060;-78
2023/05/11 06:12:14;;;;;;;5.43;4.68;;;;;;;16.63;66.94;99712.03;5070694;28;20411;-78
2023/05/11 06:14:41;;;;;;;4.97;4.50;;;;;;;16.61;66.93;99713.13;5069117;28;20051;-77
2023/05/11 06:17:08;;;;;;;3.83;3.42;;;;;;;16.61;66.96;99718.44;5070078;28;20064;-77
2023/05/11 06:19:34;;;;;;;3.38;3.00;;;;;;;16.59;67.13;99709.78;5052278;28;20064;-77
2023/05/11 06:22:01;;;;;;;3.60;2.75;;;;;;;16.58;67.04;99710.72;5107078;22;20055;-77
2023/05/11 06:24:28;;;;;;;2.58;2.38;;;;;;;16.57;67.06;99719.66;5054844;23;20057;-76
2023/05/11 06:26:55;;;;;;;2.45;2.13;;;;;;;16.56;66.89;99710.00;5050101;28;20099;-76
2023/05/11 06:29:21;;;;;;;2.45;2.25;;;;;;;16.55;66.85;99717.13;5050322;28;20045;-76
2023/05/11 06:31:51;;;;;;;1.88;1.77;;;;;;;16.53;66.90;99719.91;5049278;28;20075;-76
2023/05/11 06:34:19;;;;;;;2.13;1.92;;;;;;;16.50;66.78;99712.22;5049420;28;20068;-76
2023/05/11 06:36:46;;;;;;;2.75;1.90;;;;;;;16.47;66.90;99720.44;5049757;28;20106;-76
2023/05/11 06:39:13;;;;;;;1.55;1.45;;;;;;;16.45;66.80;99718.88;5050187;28;20049;-77
2023/05/11 06:41:40;;;;;;;1.90;1.80;;;;;;;16.41;66.91;99713.81;5050249;28;20049;-76
2023/05/11 06:44:07;;;;;;;1.83;1.73;;;;;;;16.39;66.81;99712.25;5050192;28;20049;-76
2023/05/11 06:46:33;;;;;;;1.77;1.65;;;;;;;16.36;66.85;99716.00;5049387;28;20041;-75
2023/05/11 06:49:00;;;;;;;1.98;1.73;;;;;;;16.33;66.91;99712.75;5050083;28;20107;-77
2023/05/11 06:51:27;;;;;;;2.17;1.98;;;;;;;16.32;66.90;99727.00;5049673;28;20041;-76
2023/05/11 06:53:53;;;;;;;2.00;1.90;;;;;;;16.30;67.05;99720.97;5049758;28;20041;-76
2023/05/11 06:56:20;;;;;;;2.45;2.05;;;;;;;16.28;66.95;99724.63;5049567;28;20186;-76
2023/05/11 06:58:47;;;;;;;2.30;2.10;;;;;;;16.28;67.17;99729.06;5049719;28;20051;-76
2023/05/11 07:01:13;;;;;;;2.35;2.15;;;;;;;16.26;67.08;99723.88;5049997;28;20048;-76
2023/05/11 07:03:40;;;;;;;2.20;2.00;;;;;;;16.26;67.29;99723.06;5049998;28;20057;-76
2023/05/11 07:06:06;;;;;;;2.47;2.28;;;;;;;16.25;67.53;99724.00;5049576;28;20394;-77
2023/05/11 07:08:33;;;;;;;2.35;2.15;;;;;;;16.26;67.63;99725.72;5052591;28;20049;-76
2023/05/11 07:10:59;;;;;;;2.17;1.98;;;;;;;16.28;67.68;99729.94;5053369;28;20083;-76
2023/05/11 07:13:26;;;;;;;2.20;2.00;;;;;;;16.30;67.72;99727.16;5053329;28;20053;-76
2023/05/11 07:15:52;;;;;;;2.72;2.13;;;;;;;16.33;68.00;99734.00;5053656;28;20053;-76
2023/05/11 07:18:22;;;;;;;2.22;1.90;;;;;;;16.36;68.09;99728.44;5053191;28;20057;-77
2023/05/11 07:20:49;;;;;;;2.00;1.80;;;;;;;16.41;68.16;99729.75;5053373;28;20098;-77
2023/05/11 07:23:16;;;;;;;3.10;2.35;;;;;;;16.47;68.40;99725.75;5053061;28;20398;-76
2023/05/11 07:25:42;;;;;;;3.13;2.10;;;;;;;16.53;68.32;99727.88;5053061;28;20091;-76
2023/05/11 07:28:09;;;;;;;3.63;2.72;;;;;;;16.59;68.23;99736.34;5053272;28;20091;-76
2023/05/11 07:30:35;;;;;;;2.30;2.10;;;;;;;16.64;68.08;99734.97;5052025;28;20414;-76
2023/05/11 07:33:02;;;;;;;2.50;2.30;;;;;;;16.68;67.90;99741.72;5033281;28;20041;-76
2023/05/11 07:35:28;;;;;;;2.58;2.30;;;;;;;16.73;67.85;99740.50;5033314;28;20056;-76
2023/05/11 07:37:55;;;;;;;2.20;1.90;;;;;;;16.75;67.38;99730.59;5032997;28;20053;-77
2023/05/11 07:40:21;;;;;;;3.03;2.28;;;;;;;16.79;67.52;99737.34;5033047;28;20115;-77
2023/05/11 07:42:48;;;;;;;2.30;1.88;;;;;;;16.83;67.55;99740.56;5050827;28;20041;-77
2023/05/11 07:45:14;;;;;;;3.38;2.22;;;;;;;16.86;67.67;99743.81;5052629;28;20510;-76
2023/05/11 07:47:41;;;;;;;2.13;1.92;;;;;;;16.90;67.52;99739.09;5052734;28;20099;-77
2023/05/11 07:50:08;;;;;;;2.83;2.28;;;;;;;16.92;67.50;99737.13;5052802;28;20053;-77
2023/05/11 07:52:34;;;;;;;2.95;1.95;;;;;;;16.95;67.13;99734.22;5039633;28;20061;-77
2023/05/11 07:55:01;;;;;;;2.20;1.98;;;;;;;16.99;67.10;99734.78;5032536;28;20049;-76
2023/05/11 07:57:27;;;;;;;3.03;2.40;;;;;;;17.01;66.95;99732.88;5032865;28;20050;-76
2023/05/11 07:59:53;;;;;;;2.83;2.20;;;;;;;17.03;67.45;99731.75;5032932;28;20132;-77
2023/05/11 08:02:20;;;;;;;2.53;2.00;;;;;;;17.06;67.46;99723.56;5015735;28;20053;-76
2023/05/11 08:04:47;;;;;;;3.13;2.70;;;;;;;17.10;67.04;99729.44;5015079;28;20087;-76
2023/05/11 08:07:13;;;;;;;2.92;2.55;;;;;;;17.13;66.89;99733.66;5032363;28;20077;-76
2023/05/11 08:09:40;;;;;;;3.30;2.22;;;;;;;17.14;66.92;99736.19;5032872;28;20057;-76
2023/05/11 08:12:06;;;;;;;3.00;2.70;;;;;;;17.16;67.08;99734.22;5035652;28;20044;-77
2023/05/11 08:14:33;;;;;;;2.83;2.50;;;;;;;17.19;67.10;99728.66;5051491;28;20048;-77
2023/05/11 08:16:59;;;;;;;2.80;2.50;;;;;;;17.24;67.08;99741.59;5048406;28;20554;-77
2023/05/11 08:19:26;;;;;;;2.97;2.60;;;;;;;17.28;66.95;99732.38;5051706;28;20052;-76
2023/05/11 08:21:52;;;;;;;3.97;2.85;;;;;;;17.31;66.89;99732.06;5052124;28;20056;-76
2023/05/11 08:24:19;;;;;;;2.35;2.15;;;;;;;17.36;66.80;99730.84;5052078;28;20049;-76
2023/05/11 08:26:46;;;;;;;2.60;2.40;;;;;;;17.39;66.85;99728.78;5031864;28;20103;-76
2023/05/11 08:29:12;;;;;;;2.70;2.50;;;;;;;17.41;67.05;99737.47;5032427;28;20057;-76
2023/05/11 08:31:39;;;;;;;3.25;2.90;;;;;;;17.44;66.68;99731.03;5032676;28;20049;-76
2023/05/11 08:34:07;;;;;;;2.95;2.67;;;;;;;17.45;66.98;99733.56;5034375;28;20053;-76
2023/05/11 08:36:45;;;;;;;3.58;2.90;;;;;;;17.51;67.09;99731.34;5035106;28;20118;-76
2023/05/11 08:39:12;;;;;;;3.53;2.58;;;;;;;17.55;66.94;99735.41;5033000;28;20062;-77
2023/05/11 08:41:38;;;;;;;3.50;3.20;;;;;;;17.61;67.13;99736.69;5014515;28;20053;-76
2023/05/11 08:44:05;;;;;;;3.33;3.03;;;;;;;17.65;67.24;99735.47;5032208;28;20127;-77
2023/05/11 08:46:34;;;;;;;3.38;3.08;;;;;;;17.69;67.03;99735.03;5014153;28;20096;-76
2023/05/11 08:49:01;;;;;;;3.70;3.40;;;;;;;17.76;66.81;99734.53;5046156;28;20122;-77
2023/05/11 08:51:28;;;;;;;3.65;3.35;;;;;;;17.81;66.42;99743.78;5051824;28;20061;-76
2023/05/11 08:53:56;;;;;;;5.55;4.25;;;;;;;17.83;66.50;99743.66;5033990;28;20387;-77
2023/05/11 08:56:25;;;;;;;4.55;4.07;;;;;;;17.86;66.32;99750.53;5051386;28;20051;-76
2023/05/11 08:58:54;;;;;;;4.32;3.92;;;;;;;17.89;65.97;99747.56;5032996;28;20079;-76
2023/05/11 09:01:22;;;;;;;4.75;4.32;;;;;;;17.91;65.81;99750.97;5051428;28;20139;-77
2023/05/11 09:03:49;;;;;;;5.38;4.88;;;;;;;17.93;65.82;99751.66;5051382;28;20060;-77
2023/05/11 09:06:17;;;;;;;8.27;5.00;;;;;;;17.95;66.18;99750.53;5051298;28;20402;-77
2023/05/11 09:08:44;;;;;;;5.38;4.88;;;;;;;17.98;66.34;99744.09;5026165;28;20058;-77
2023/05/11 09:11:11;;;;;;;5.25;4.75;;;;;;;18.00;66.22;99750.16;5033054;28;20111;-77
2023/05/11 09:13:38;;;;;;;5.47;4.97;;;;;;;18.03;65.59;99757.03;5051233;28;20045;-78
2023/05/11 09:16:05;;;;;;;5.18;4.68;;;;;;;18.05;65.65;99755.91;5050813;28;20053;-77
2023/05/11 09:18:50;;;;;;;6.45;5.07;;;;;;;18.06;65.14;99757.56;5046444;28;20137;-77
2023/05/11 09:21:17;;;;;;;7.57;5.53;;;;;;;18.06;65.55;99759.41;5031444;28;20076;-77
2023/05/11 09:23:44;;;;;;;6.60;5.15;;;;;;;18.05;65.27;99755.91;5044463;28;20060;-76
2023/05/11 09:26:28;;;;;;;5.75;4.63;;;;;;;18.01;65.31;99751.00;5050713;28;20118;-77
2023/05/11 09:28:59;;;;;;;5.13;4.63;;;;;;;18.05;64.84;99755.06;5050754;28;20051;-77
2023/05/11 09:31:39;;;;;;;4.68;4.20;;;;;;;17.97;65.02;99753.06;5050175;28;20147;-77
2023/05/11 09:34:21;;;;;;;5.32;4.72;;;;;;;17.94;65.27;99748.03;5050850;28;20531;-77
2023/05/11 09:36:49;;;;;;;5.57;4.63;;;;;;;17.96;64.96;99752.25;5050371;28;20057;-78
2023/05/11 09:39:19;;;;;;;4.78;4.30;;;;;;;17.96;65.22;99746.06;5050856;28;20052;-77
2023/05/11 09:42:12;;;;;;;5.03;4.53;;;;;;;17.92;64.80;99745.50;5048652;28;20434;-77
2023/05/11 09:44:40;;;;;;;4.15;3.78;;;;;;;17.96;65.37;99751.41;5051002;28;20409;-77
2023/05/11 09:47:14;;;;;;;4.38;3.83;;;;;;;17.95;65.31;99752.38;5049961;28;20445;-77
2023/05/11 09:49:43;;;;;;;3.97;3.60;;;;;;;17.99;65.40;99751.13;5049055;28;20402;-77
2023/05/11 09:52:17;;;;;;;4.07;3.50;;;;;;;18.00;65.17;99751.94;5050771;28;20056;-77
2023/05/11 09:54:50;;;;;;;4.18;3.78;;;;;;;18.03;65.28;99752.53;5050554;28;20084;-77
2023/05/11 09:57:30;;;;;;;4.97;2.97;;;;;;;18.05;64.86;99755.06;5050421;28;20128;-77
2023/05/11 09:59:58;;;;;;;4.05;3.38;;;;;;;18.07;65.04;99758.44;5050337;28;20087;-76
2023/05/11 10:02:29;;;;;;;4.18;3.63;;;;;;;18.08;65.47;99754.81;5049497;28;20053;-77
2023/05/11 10:04:58;;;;;;;3.40;3.00;;;;;;;18.09;65.23;99752.03;5050164;28;20059;-76
2023/05/11 10:07:33;;;;;;;3.58;3.13;;;;;;;18.08;65.24;99755.66;5050141;28;20508;-76
2023/05/11 10:10:01;;;;;;;3.85;3.28;;;;;;;18.14;65.23;99750.78;5050097;28;20060;-77
2023/05/11 10:12:32;;;;;;;4.68;3.42;;;;;;;18.17;65.54;99750.50;5049086;28;20065;-77
2023/05/11 10:15:06;;;;;;;3.60;3.30;;;;;;;18.19;65.28;99752.03;5050240;28;20489;-76
2023/05/11 10:17:34;;;;;;;3.47;2.95;;;;;;;18.25;65.28;99753.31;5050305;28;20144;-77
2023/05/11 10:20:02;;;;;;;3.40;3.10;;;;;;;18.30;65.49;99755.56;5050157;28;20049;-77
2023/05/11 10:22:30;;;;;;;4.35;3.45;;;;;;;18.33;65.64;99744.63;5050173;28;20115;-77
2023/05/11 10:24:57;;;;;;;3.42;3.13;;;;;;;18.40;64.89;99752.91;5049852;28;20089;-77
2023/05/11 10:27:25;;;;;;;3.88;3.17;;;;;;;18.44;64.68;99747.19;5050106;28;20053;-77
2023/05/11 10:29:51;;;;;;;4.07;3.20;;;;;;;18.48;64.84;99753.06;5050140;28;20068;-76
2023/05/11 10:32:19;;;;;;;3.63;3.33;;;;;;;18.48;64.38;99735.25;5050398;28;20049;-77
2023/05/11 10:34:47;;;;;;;5.72;3.15;;;;;;;18.49;64.55;99738.75;5049846;28;20452;-76
2023/05/11 10:37:15;;;;;;;4.28;3.88;;;;;;;18.52;65.09;99745.63;5049918;28;20059;-76
2023/05/11 10:39:43;;;;;;;3.53;3.22;;;;;;;18.55;65.23;99737.34;5050036;28;20052;-77
2023/05/11 10:42:15;;;;;;;3.85;3.50;;;;;;;18.58;64.93;99739.75;5051041;28;20103;-77
2023/05/11 10:45:04;;;;;;;4.13;3.70;;;;;;;18.64;64.64;99738.34;5052807;28;20517;-76
2023/05/11 10:48:14;;;;;;;4.03;3.65;;;;;;;18.67;65.12;99743.38;5052666;28;20044;-77
2023/05/11 10:51:14;;;;;;;3.95;3.55;;;;;;;18.73;64.73;99742.84;5054041;28;20048;-77
2023/05/11 10:54:02;;;;;;;3.80;3.50;;;;;;;18.80;64.73;99746.59;5054041;28;20057;-77
2023/05/11 10:57:06;;;;;;;4.40;3.67;;;;;;;18.81;64.36;99750.97;5053806;28;20049;-77
2023/05/11 11:00:29;;;;;;;5.57;4.75;;;;;;;18.86;64.30;99750.53;5053836;28;20512;-76
2023/05/11 11:02:57;;;;;;;4.45;4.05;;;;;;;18.94;64.12;99750.66;5029766;28;20059;-77
2023/05/11 11:05:35;;;;;;;4.93;4.00;;;;;;;18.91;63.71;99747.44;5053331;28;20102;-77
2023/05/11 11:08:06;;;;;;;5.50;4.20;;;;;;;18.93;63.64;99751.66;5053625;28;20055;-77
2023/05/11 11:10:33;;;;;;;4.60;3.78;;;;;;;18.89;63.63;99756.41;5053520;28;20095;-78
2023/05/11 11:13:10;;;;;;;4.72;3.97;;;;;;;18.83;63.63;99751.66;5053551;28;20068;-77
2023/05/11 11:15:52;;;;;;;4.60;4.05;;;;;;;18.80;63.95;99751.94;5053077;28;20049;-78
2023/05/11 11:18:22;;;;;;;5.80;4.28;;;;;;;18.85;64.63;99752.38;5052359;28;20061;-77
2023/05/11 11:20:51;;;;;;;4.75;4.25;;;;;;;18.88;64.38;99754.72;5052387;28;20084;-77
2023/05/11 11:23:50;;;;;;;4.57;4.03;;;;;;;18.89;64.61;99758.25;5052788;28;20057;-77
2023/05/11 11:26:49;;;;;;;4.30;3.90;;;;;;;18.97;64.87;99755.72;5019571;28;20056;-77
2023/05/11 11:29:16;;;;;;;4.10;3.70;;;;;;;19.11;64.40;99757.13;5037271;28;20118;-77
2023/05/11 11:31:42;;;;;;;5.03;4.13;;;;;;;19.20;64.53;99757.25;5052820;28;20056;-77
2023/05/11 11:34:24;;;;;;;5.18;4.28;;;;;;;19.23;64.25;99755.16;5053331;28;20107;-77
2023/05/11 11:37:02;;;;;;;3.80;3.47;;;;;;;19.33;63.90;99748.94;5052390;28;20482;-77
2023/05/11 11:39:41;;;;;;;6.00;4.03;;;;;;;19.38;63.75;99752.84;5053082;28;20106;-77
2023/05/11 11:42:08;;;;;;;4.85;4.28;;;;;;;19.47;63.19;99756.47;5052754;28;20064;-78
2023/05/11 11:44:38;;;;;;;6.28;4.55;;;;;;;19.48;62.73;99749.31;5052983;28;20501;-77